Time;durP1;ratioP1;P1;durP2;ratioP2;P2;SDS_P1;SDS_P2;PMS_P1;PMS_P2;Temp;Humidity;BMP_temperature;BMP_pressure;BME280_temperature;BME280_humidity;BME280_pressure;Samples;Min_cycle;Max_cycle;Signal;HPM_P1;HPM_P2
2022/04/28 00:00:20;;;;;;;3.47;0.80;;;12.80;99.90;;;;;;5067373;28;20650;-92
2022/04/28 00:02:52;;;;;;;1.63;0.90;;;12.60;99.90;;;;;;5078112;28;20224;-91
2022/04/28 00:05:24;;;;;;;1.77;0.80;;;12.30;99.90;;;;;;5077701;28;20208;-91
2022/04/28 00:07:57;;;;;;;1.83;0.97;;;12.20;99.90;;;;;;5070132;28;20246;-90
2022/04/28 00:10:30;;;;;;;1.83;0.90;;;12.00;99.90;;;;;;5071255;28;20219;-90
2022/04/28 00:13:02;;;;;;;1.40;0.80;;;12.10;99.90;;;;;;5075620;28;20227;-91
2022/04/28 00:15:35;;;;;;;1.67;0.90;;;11.90;99.90;;;;;;5076581;28;20242;-89
2022/04/28 00:18:10;;;;;;;1.27;0.80;;;11.80;99.90;;;;;;5066255;28;20212;-90
2022/04/28 00:20:42;;;;;;;2.03;0.77;;;11.70;99.90;;;;;;5070816;28;20722;-90
2022/04/28 00:23:13;;;;;;;1.80;0.93;;;11.70;99.90;;;;;;5075290;28;20212;-90
2022/04/28 00:25:46;;;;;;;2.83;1.10;;;11.60;99.90;;;;;;5065635;28;20318;-91
2022/04/28 00:28:20;;;;;;;1.80;0.90;;;11.70;99.90;;;;;;5065183;28;20243;-91
2022/04/28 00:30:52;;;;;;;1.03;0.80;;;11.80;99.90;;;;;;5064815;28;20253;-91
2022/04/28 00:33:24;;;;;;;1.87;0.90;;;11.80;99.90;;;;;;5060608;28;20211;-91
2022/04/28 00:35:56;;;;;;;2.10;0.90;;;11.90;99.90;;;;;;5059620;28;20224;-91
2022/04/28 00:38:27;;;;;;;1.23;0.80;;;11.90;99.90;;;;;;5058646;28;20212;-91
2022/04/28 00:41:01;;;;;;;2.27;1.20;;;12.10;99.90;;;;;;5059040;28;20213;-92
2022/04/28 00:43:33;;;;;;;1.00;0.80;;;12.50;99.90;;;;;;5061073;28;20644;-92
2022/04/28 00:46:04;;;;;;;1.93;0.80;;;12.90;99.90;;;;;;5058749;28;20231;-93
2022/04/28 00:51:24;;;;;;;2.13;0.80;;;13.70;99.90;;;;;;5060928;28;20736;-92
2022/04/28 00:53:56;;;;;;;1.13;0.73;;;14.10;99.90;;;;;;5058513;28;20204;-91
2022/04/28 00:56:32;;;;;;;1.70;0.77;;;14.20;99.90;;;;;;5060569;28;20236;-92
2022/04/28 00:59:04;;;;;;;1.93;0.73;;;14.20;99.90;;;;;;5060119;28;20704;-91
2022/04/28 01:01:37;;;;;;;1.37;0.70;;;14.20;99.90;;;;;;5058870;28;20578;-92
2022/04/28 01:04:10;;;;;;;1.13;0.70;;;14.30;99.90;;;;;;5059350;28;20208;-92
2022/04/28 01:06:43;;;;;;;1.40;0.60;;;14.60;99.90;;;;;;5038776;28;20616;-91
2022/04/28 01:09:16;;;;;;;0.80;0.47;;;14.90;99.90;;;;;;5037982;28;20240;-92
2022/04/28 01:11:50;;;;;;;1.63;0.67;;;14.70;99.90;;;;;;5037671;28;20300;-91
2022/04/28 01:14:22;;;;;;;1.10;0.60;;;14.60;99.90;;;;;;5038281;28;20257;-91
2022/04/28 01:16:54;;;;;;;3.20;0.60;;;14.50;99.90;;;;;;5045334;28;20205;-92
2022/04/28 01:19:27;;;;;;;1.83;0.70;;;14.30;99.90;;;;;;5037352;28;20319;-92
2022/04/28 01:22:02;;;;;;;0.60;0.53;;;14.30;99.90;;;;;;5040407;28;20213;-91
2022/04/28 01:24:36;;;;;;;1.03;0.50;;;14.60;99.90;;;;;;5038529;28;20291;-91
2022/04/28 01:27:09;;;;;;;0.70;0.50;;;14.50;99.90;;;;;;5052169;28;20310;-92
2022/04/28 01:29:40;;;;;;;1.33;0.73;;;14.60;99.90;;;;;;5037829;28;20291;-92
2022/04/28 01:32:12;;;;;;;1.57;0.70;;;14.90;99.90;;;;;;5039267;28;20213;-92
2022/04/28 01:34:44;;;;;;;0.70;0.70;;;14.90;99.90;;;;;;5056300;28;20212;-92
2022/04/28 01:37:18;;;;;;;1.43;0.60;;;14.90;99.90;;;;;;5060345;28;20201;-93
2022/04/28 01:39:50;;;;;;;2.23;0.70;;;14.80;99.90;;;;;;5061428;28;20219;-91
2022/04/28 01:45:19;;;;;;;1.13;0.70;;;14.70;99.90;;;;;;5063109;28;20207;-91
2022/04/28 01:47:53;;;;;;;0.70;0.60;;;14.80;99.90;;;;;;5057220;28;20668;-91
2022/04/28 01:50:23;;;;;;;1.40;0.70;;;14.70;99.90;;;;;;5063100;28;20200;-89
2022/04/28 01:56:17;;;;;;;0.83;0.60;;;15.40;99.90;;;;;;5076043;28;20242;-91
2022/04/28 01:59:01;;;;;;;1.33;0.73;;;15.60;99.90;;;;;;5076427;28;20196;-89
2022/04/28 02:01:32;;;;;;;1.63;0.80;;;15.10;99.90;;;;;;5072531;28;20247;-91
2022/04/28 02:04:19;;;;;;;0.83;0.80;;;14.60;99.90;;;;;;5070579;28;20200;-91
2022/04/28 02:06:55;;;;;;;0.80;0.53;;;14.00;99.90;;;;;;5070564;28;20232;-91
2022/04/28 02:12:15;;;;;;;0.83;0.60;;;13.50;99.90;;;;;;5071415;28;20225;-91
2022/04/28 02:17:38;;;;;;;0.70;0.50;;;12.90;99.90;;;;;;5073188;28;20184;-93
2022/04/28 02:20:32;;;;;;;1.90;0.90;;;12.80;99.90;;;;;;5073290;28;20265;-92
2022/04/28 02:25:32;;;;;;;2.63;0.70;;;12.50;99.90;;;;;;5075105;28;20237;-91
2022/04/28 02:28:08;;;;;;;1.20;0.70;;;12.40;99.90;;;;;;5075246;28;20224;-91
2022/04/28 02:30:40;;;;;;;0.83;0.60;;;12.30;99.90;;;;;;5069630;28;20265;-90
2022/04/28 02:33:18;;;;;;;1.17;0.80;;;12.00;99.90;;;;;;5071186;28;20208;-91
2022/04/28 02:35:50;;;;;;;1.10;0.77;;;12.00;99.90;;;;;;5073061;28;20232;-91
2022/04/28 02:38:35;;;;;;;2.23;0.70;;;12.00;99.90;;;;;;5071271;28;20204;-91
2022/04/28 02:41:08;;;;;;;0.70;0.60;;;12.00;99.90;;;;;;5073036;28;20201;-91
2022/04/28 02:43:54;;;;;;;2.03;0.80;;;12.00;99.90;;;;;;5070046;28;20218;-91
2022/04/28 02:46:27;;;;;;;0.90;0.60;;;12.00;99.90;;;;;;5071526;28;20212;-91
2022/04/28 02:49:06;;;;;;;1.17;1.03;;;11.80;99.90;;;;;;5425832;22;20241;-91
2022/04/28 02:54:22;;;;;;;0.97;0.57;;;11.70;99.90;;;;;;5306838;22;20248;-90
2022/04/28 02:56:54;;;;;;;1.17;0.70;;;11.60;99.90;;;;;;5050794;28;20255;-90
2022/04/28 02:59:33;;;;;;;0.93;0.73;;;11.70;99.90;;;;;;5052586;28;20228;-91
2022/04/28 03:02:06;;;;;;;1.13;0.80;;;11.50;99.90;;;;;;5055269;28;20197;-91
2022/04/28 03:04:38;;;;;;;1.17;0.63;;;11.40;99.90;;;;;;5052785;28;20209;-91
2022/04/28 03:15:41;;;;;;;1.23;0.70;;;11.20;99.90;;;;;;5109460;22;20232;-91
2022/04/28 03:18:12;;;;;;;0.60;0.60;;;11.20;99.90;;;;;;5071643;28;20291;-91
2022/04/28 03:20:45;;;;;;;2.00;0.80;;;11.10;99.90;;;;;;5408952;22;20310;-91
2022/04/28 03:23:17;;;;;;;0.60;0.60;;;11.10;99.90;;;;;;5056302;28;20209;-92
2022/04/28 03:25:51;;;;;;;1.60;0.90;;;11.00;99.90;;;;;;5054076;28;20233;-91
2022/04/28 03:28:24;;;;;;;1.90;0.90;;;11.00;99.90;;;;;;5033463;28;20259;-91
2022/04/28 03:31:00;;;;;;;1.30;0.60;;;11.00;99.90;;;;;;5034361;28;20236;-91
2022/04/28 03:33:31;;;;;;;0.60;0.50;;;11.00;99.90;;;;;;5033599;28;20292;-91
2022/04/28 03:36:50;;;;;;;2.87;0.80;;;10.90;99.90;;;;;;5033888;28;20206;-90
2022/04/28 03:39:00;;;;;;;1.27;0.80;;;10.90;99.90;;;;;;5033938;28;20205;-90
2022/04/28 03:41:33;;;;;;;1.63;0.90;;;10.80;99.90;;;;;;5034035;28;20202;-91
2022/04/28 03:44:08;;;;;;;2.37;1.10;;;10.70;99.90;;;;;;5033322;28;20202;-91
2022/04/28 03:46:47;;;;;;;1.37;1.00;;;10.80;99.90;;;;;;5031940;28;20299;-91
2022/04/28 03:49:19;;;;;;;1.37;1.00;;;10.70;99.90;;;;;;5033108;28;20242;-90
2022/04/28 03:51:50;;;;;;;1.33;1.00;;;10.40;99.90;;;;;;5036549;28;20206;-89
2022/04/28 03:54:30;;;;;;;2.50;1.33;;;10.40;99.90;;;;;;5032066;28;20668;-91
2022/04/28 03:57:03;;;;;;;3.00;0.90;;;10.30;99.90;;;;;;5031861;28;20232;-90
2022/04/28 03:59:35;;;;;;;1.00;0.90;;;10.10;99.90;;;;;;5036754;28;20240;-91
2022/04/28 04:02:11;;;;;;;1.63;0.97;;;10.10;99.90;;;;;;5033715;28;20579;-91
2022/04/28 04:04:44;;;;;;;1.00;0.90;;;10.00;99.90;;;;;;5049059;28;20208;-91
2022/04/28 04:07:15;;;;;;;1.53;1.00;;;9.70;99.90;;;;;;5049469;28;20204;-92
2022/04/28 04:09:48;;;;;;;1.07;1.00;;;9.70;99.90;;;;;;5052320;28;20209;-90
2022/04/28 04:12:25;;;;;;;2.20;0.97;;;9.70;99.90;;;;;;5052078;28;20216;-91
2022/04/28 04:14:58;;;;;;;2.27;1.27;;;9.50;99.90;;;;;;5053885;28;20211;-90
2022/04/28 04:17:32;;;;;;;2.57;1.27;;;9.40;99.90;;;;;;5052566;28;20245;-91
2022/04/28 04:20:05;;;;;;;2.57;1.10;;;9.20;99.90;;;;;;5044021;28;20304;-91
2022/04/28 04:22:38;;;;;;;2.47;1.20;;;8.80;99.90;;;;;;5040497;28;20316;-92
2022/04/28 04:25:10;;;;;;;2.47;1.43;;;8.60;99.90;;;;;;5056997;28;20196;-90
2022/04/28 04:27:42;;;;;;;1.83;1.43;;;8.50;99.90;;;;;;5057128;28;20185;-91
2022/04/28 04:33:07;;;;;;;2.30;1.40;;;8.80;99.90;;;;;;5057428;28;20202;-89
2022/04/28 04:35:38;;;;;;;1.73;1.23;;;8.80;99.90;;;;;;5057683;28;20188;-90
2022/04/28 04:38:10;;;;;;;2.30;1.13;;;8.60;99.90;;;;;;5056446;28;20230;-91
2022/04/28 04:40:44;;;;;;;3.27;1.30;;;8.60;99.90;;;;;;5451136;23;20244;-88
2022/04/28 04:43:15;;;;;;;1.33;1.10;;;8.50;99.90;;;;;;5086391;22;20240;-90
2022/04/28 04:45:46;;;;;;;3.23;1.27;;;8.60;99.90;;;;;;5054076;28;20208;-91
2022/04/28 04:48:24;;;;;;;2.33;1.10;;;8.70;99.90;;;;;;5053099;28;20235;-90
2022/04/28 04:50:56;;;;;;;2.43;1.10;;;8.70;99.90;;;;;;5054228;28;20212;-90
2022/04/28 04:53:28;;;;;;;2.10;1.03;;;8.80;99.90;;;;;;5054817;28;20227;-90
2022/04/28 04:55:59;;;;;;;2.07;1.00;;;8.80;99.90;;;;;;5035784;28;20243;-91
2022/04/28 04:58:30;;;;;;;1.37;1.07;;;8.70;99.90;;;;;;5055746;28;20211;-90
2022/04/28 05:01:09;;;;;;;1.17;0.87;;;8.70;99.90;;;;;;5056943;28;20197;-91
2022/04/28 05:03:44;;;;;;;2.60;1.03;;;8.70;99.90;;;;;;5052208;28;20211;-90
2022/04/28 05:06:16;;;;;;;2.60;1.00;;;8.60;99.90;;;;;;5053121;28;20196;-90
2022/04/28 05:08:48;;;;;;;1.77;1.27;;;8.40;99.90;;;;;;5048544;28;20252;-90
2022/04/28 05:11:19;;;;;;;5.50;1.70;;;8.40;99.90;;;;;;5042538;28;20201;-92
2022/04/28 05:13:50;;;;;;;3.17;1.03;;;8.40;99.90;;;;;;5043578;28;20227;-90
2022/04/28 05:16:22;;;;;;;2.63;1.33;;;8.30;99.90;;;;;;5042974;28;20235;-90
2022/04/28 05:18:55;;;;;;;2.97;1.83;;;8.30;99.90;;;;;;5046752;28;20239;-90
2022/04/28 05:21:26;;;;;;;2.33;1.63;;;8.30;99.90;;;;;;5046594;28;20227;-90
2022/04/28 05:23:57;;;;;;;3.00;1.20;;;8.20;99.90;;;;;;5041165;28;20208;-91
2022/04/28 05:26:29;;;;;;;2.13;0.97;;;8.10;99.90;;;;;;5045784;28;20209;-90
2022/04/28 05:29:00;;;;;;;2.50;1.10;;;8.00;99.90;;;;;;5032183;28;20260;-90
2022/04/28 05:31:37;;;;;;;1.77;1.00;;;8.00;99.90;;;;;;5027206;28;20209;-90
2022/04/28 05:34:10;;;;;;;2.87;1.23;;;7.90;99.90;;;;;;5034927;28;20213;-91
2022/04/28 05:36:43;;;;;;;2.47;1.30;;;7.90;99.90;;;;;;5039665;28;20213;-90
2022/04/28 05:39:14;;;;;;;5.60;1.43;;;7.80;99.90;;;;;;5041528;28;20213;-87
2022/04/28 05:41:46;;;;;;;2.83;1.30;;;7.80;99.90;;;;;;5039284;28;20272;-90
2022/04/28 05:47:05;;;;;;;1.80;1.10;;;7.70;99.90;;;;;;5038372;28;20324;-90
2022/04/28 05:49:41;;;;;;;3.27;1.30;;;7.80;99.90;;;;;;5033165;28;20288;-91
2022/04/28 05:52:12;;;;;;;1.40;1.00;;;7.80;99.90;;;;;;5018841;28;20220;-90
2022/04/28 05:54:44;;;;;;;1.93;1.10;;;7.80;99.90;;;;;;5018575;28;20698;-91
2022/04/28 05:57:17;;;;;;;1.57;1.10;;;7.80;99.90;;;;;;5017125;28;20210;-88
2022/04/28 05:59:48;;;;;;;2.50;1.30;;;7.80;99.90;;;;;;5018427;28;20209;-90
2022/04/28 06:02:21;;;;;;;4.10;1.17;;;7.80;99.90;;;;;;5016493;28;20246;-91
2022/04/28 06:04:55;;;;;;;2.60;1.13;;;7.80;99.90;;;;;;5018349;28;20198;-88
2022/04/28 06:07:27;;;;;;;4.00;1.47;;;7.70;99.90;;;;;;5024749;28;20273;-89
2022/04/28 06:09:59;;;;;;;2.37;1.30;;;7.60;99.90;;;;;;5023587;28;20710;-89
2022/04/28 06:12:31;;;;;;;2.27;1.10;;;7.70;99.90;;;;;;5019546;28;20271;-89
2022/04/28 06:15:03;;;;;;;2.80;1.60;;;7.60;99.90;;;;;;5019038;28;20638;-89
2022/04/28 06:17:35;;;;;;;2.20;1.40;;;7.60;99.90;;;;;;5017496;28;20236;-89
2022/04/28 06:20:10;;;;;;;1.70;1.30;;;7.40;99.90;;;;;;5018419;28;20214;-89
2022/04/28 06:22:46;;;;;;;3.43;1.17;;;7.40;99.90;;;;;;5022778;28;20237;-88
2022/04/28 06:25:17;;;;;;;1.87;1.40;;;7.40;99.90;;;;;;5017901;28;20225;-89
2022/04/28 06:27:48;;;;;;;3.43;1.37;;;7.40;99.90;;;;;;5018459;28;20305;-89
2022/04/28 06:30:20;;;;;;;2.23;1.10;;;7.30;99.90;;;;;;5021970;28;20315;-88
2022/04/28 06:32:52;;;;;;;2.20;1.20;;;7.40;99.90;;;;;;5022164;28;20244;-89
2022/04/28 06:35:26;;;;;;;1.30;1.10;;;7.40;99.90;;;;;;5021506;28;20271;-88
2022/04/28 06:37:57;;;;;;;1.80;1.10;;;7.40;99.90;;;;;;5021871;28;20251;-89
2022/04/28 06:40:28;;;;;;;1.87;1.40;;;7.30;99.90;;;;;;5022260;28;20217;-89
2022/04/28 06:42:59;;;;;;;3.30;1.33;;;7.30;99.90;;;;;;5026435;28;20221;-89
2022/04/28 06:45:36;;;;;;;3.13;1.90;;;7.40;99.90;;;;;;5029169;28;20243;-89
2022/04/28 06:48:09;;;;;;;1.70;1.30;;;7.30;99.90;;;;;;5038842;28;20216;-88
2022/04/28 06:50:42;;;;;;;2.53;1.20;;;7.40;99.90;;;;;;5033765;28;20248;-89
2022/04/28 06:53:14;;;;;;;2.70;1.33;;;7.40;99.90;;;;;;5030129;28;20292;-89
2022/04/28 06:55:45;;;;;;;1.90;1.20;;;7.40;99.90;;;;;;5023056;28;20217;-89
2022/04/28 06:58:16;;;;;;;2.57;1.40;;;7.40;99.90;;;;;;5021155;28;20212;-89
2022/04/28 07:00:48;;;;;;;2.13;1.30;;;7.50;99.90;;;;;;5021483;28;20242;-89
2022/04/28 07:03:20;;;;;;;2.60;1.27;;;7.50;99.90;;;;;;5020465;28;20225;-89
2022/04/28 07:05:53;;;;;;;2.90;1.30;;;7.50;99.90;;;;;;5020778;28;20289;-88
2022/04/28 07:08:25;;;;;;;2.63;1.23;;;7.40;99.90;;;;;;5020870;28;20283;-89
2022/04/28 07:11:02;;;;;;;1.30;1.20;;;7.40;99.90;;;;;;5022045;28;20225;-88
2022/04/28 07:13:37;;;;;;;1.63;1.40;;;7.40;99.90;;;;;;5020915;28;20205;-89
2022/04/28 07:16:11;;;;;;;2.10;1.13;;;7.40;99.90;;;;;;5004232;28;20205;-89
2022/04/28 07:18:44;;;;;;;2.80;1.40;;;7.50;99.90;;;;;;5000927;28;20342;-89
2022/04/28 07:21:18;;;;;;;3.27;1.40;;;7.50;99.90;;;;;;5019387;28;20229;-88
2022/04/28 07:23:50;;;;;;;1.80;1.40;;;7.40;99.90;;;;;;5020297;28;20220;-89
2022/04/28 07:26:22;;;;;;;2.13;1.50;;;7.40;99.90;;;;;;5000251;28;20217;-89
2022/04/28 07:28:54;;;;;;;3.57;1.40;;;7.40;99.90;;;;;;4999818;28;20221;-89
2022/04/28 07:31:25;;;;;;;2.00;1.37;;;7.40;99.90;;;;;;5004511;28;20264;-89
2022/04/28 07:33:56;;;;;;;2.53;1.50;;;7.40;99.90;;;;;;5012672;28;20216;-89
2022/04/28 07:36:30;;;;;;;3.00;1.50;;;7.40;99.90;;;;;;5020225;28;20720;-89
2022/04/28 07:39:02;;;;;;;2.57;1.53;;;7.40;99.90;;;;;;5020647;28;20240;-89
2022/04/28 07:41:33;;;;;;;3.53;1.70;;;7.40;99.90;;;;;;5020474;28;20225;-89
2022/04/28 07:44:04;;;;;;;2.00;1.50;;;7.40;99.90;;;;;;5021915;28;20707;-89
2022/04/28 07:46:37;;;;;;;2.87;1.50;;;7.40;99.90;;;;;;5024691;28;20205;-89
2022/04/28 07:49:08;;;;;;;2.90;1.70;;;7.40;99.90;;;;;;5021657;28;20630;-89
2022/04/28 07:51:41;;;;;;;3.10;1.97;;;7.40;99.90;;;;;;5027321;28;20206;-89
2022/04/28 07:54:12;;;;;;;2.60;1.57;;;7.50;99.90;;;;;;5021418;28;20228;-89
2022/04/28 07:59:36;;;;;;;2.27;1.40;;;7.40;99.90;;;;;;5025355;28;20197;-89
2022/04/28 08:02:09;;;;;;;3.40;1.60;;;7.40;99.90;;;;;;5028695;28;20205;-89
2022/04/28 08:04:41;;;;;;;1.93;1.63;;;7.40;99.90;;;;;;5022198;28;20213;-89
2022/04/28 08:07:14;;;;;;;3.40;1.60;;;7.40;99.90;;;;;;5021703;28;20206;-89
2022/04/28 08:09:45;;;;;;;3.30;1.40;;;7.40;99.90;;;;;;5020132;28;20263;-88
2022/04/28 08:12:17;;;;;;;4.77;1.67;;;7.30;99.90;;;;;;5027481;28;20245;-89
2022/04/28 08:15:10;;;;;;;5.33;2.00;;;7.30;99.90;;;;;;5007454;28;20207;-90
2022/04/28 08:17:42;;;;;;;3.03;1.53;;;7.20;99.90;;;;;;5007845;28;20213;-89
2022/04/28 08:20:14;;;;;;;2.03;1.70;;;7.20;99.90;;;;;;5009220;28;20575;-89
2022/04/28 08:22:48;;;;;;;2.37;1.60;;;7.00;99.90;;;;;;5011053;28;20206;-88
2022/04/28 08:25:19;;;;;;;3.10;2.30;;;7.00;99.90;;;;;;5007552;28;20214;-88
2022/04/28 08:27:56;;;;;;;2.03;1.60;;;7.00;99.90;;;;;;5026445;28;20243;-88
2022/04/28 08:30:27;;;;;;;3.13;1.70;;;6.90;99.90;;;;;;5020463;28;20231;-88
2022/04/28 08:32:59;;;;;;;3.67;1.80;;;6.90;99.90;;;;;;5016415;28;20209;-89
2022/04/28 08:35:31;;;;;;;2.20;1.80;;;6.80;99.90;;;;;;5003845;28;20241;-89
2022/04/28 08:38:04;;;;;;;2.30;1.60;;;6.70;99.90;;;;;;4997746;28;20280;-89
2022/04/28 08:40:36;;;;;;;1.87;1.60;;;6.80;99.90;;;;;;4999795;28;20224;-89
2022/04/28 08:43:08;;;;;;;2.47;1.87;;;6.70;99.90;;;;;;4998879;28;20221;-88
2022/04/28 08:46:50;;;;;;;2.50;1.60;;;6.60;99.90;;;;;;4999245;28;20336;-89
2022/04/28 08:48:36;;;;;;;2.37;1.43;;;6.50;99.90;;;;;;4998529;28;20209;-89
2022/04/28 08:51:09;;;;;;;2.60;1.53;;;6.50;99.90;;;;;;4998993;28;20245;-89
2022/04/28 08:53:46;;;;;;;3.80;1.90;;;6.40;99.90;;;;;;4998307;28;20235;-89
2022/04/28 08:56:17;;;;;;;2.53;1.80;;;6.40;99.90;;;;;;5001234;28;20289;-89
2022/04/28 08:58:49;;;;;;;4.53;2.07;;;6.40;99.90;;;;;;5009239;28;20228;-89
2022/04/28 09:01:27;;;;;;;2.30;1.60;;;6.30;99.90;;;;;;5011113;28;20221;-89
2022/04/28 09:04:00;;;;;;;2.00;1.80;;;6.30;99.90;;;;;;5019360;28;20205;-90
2022/04/28 09:06:42;;;;;;;4.00;2.10;;;6.30;99.90;;;;;;5020112;28;20300;-89
2022/04/28 09:09:17;;;;;;;2.63;2.00;;;6.30;99.90;;;;;;5019386;28;20213;-90
2022/04/28 09:12:02;;;;;;;2.20;1.77;;;6.30;99.90;;;;;;5020310;28;20279;-87
2022/04/28 09:14:34;;;;;;;3.57;1.90;;;6.30;99.90;;;;;;5021310;28;20657;-89
2022/04/28 09:17:06;;;;;;;2.67;1.87;;;6.30;99.90;;;;;;5017258;28;20300;-88
2022/04/28 09:19:39;;;;;;;3.67;1.90;;;6.20;99.90;;;;;;5017934;28;20221;-89
2022/04/28 09:22:13;;;;;;;4.67;2.07;;;6.20;99.90;;;;;;5020571;28;20208;-89
2022/04/28 09:24:47;;;;;;;3.70;1.77;;;6.20;99.90;;;;;;5019871;28;20244;-88
2022/04/28 09:27:19;;;;;;;2.80;1.93;;;6.10;99.90;;;;;;5019508;28;20574;-89
2022/04/28 09:29:51;;;;;;;2.90;2.30;;;6.10;99.90;;;;;;5018342;28;20741;-89
2022/04/28 09:32:26;;;;;;;2.83;2.07;;;6.10;99.90;;;;;;5019656;28;20225;-89
2022/04/28 09:35:18;;;;;;;2.87;2.10;;;6.10;99.90;;;;;;5017280;28;20288;-89
2022/04/28 09:37:50;;;;;;;5.63;2.00;;;6.00;99.90;;;;;;5016992;28;20236;-90
2022/04/28 09:43:11;;;;;;;2.37;1.87;;;5.80;99.90;;;;;;5017267;28;20280;-90
2022/04/28 09:45:42;;;;;;;3.13;2.10;;;5.90;99.90;;;;;;5017132;28;20214;-90
2022/04/28 09:48:14;;;;;;;3.63;2.13;;;5.90;99.90;;;;;;5016391;28;20289;-90
2022/04/28 09:50:47;;;;;;;2.50;2.27;;;6.00;99.90;;;;;;5017475;28;20251;-90
2022/04/28 09:53:22;;;;;;;2.77;2.10;;;6.00;99.90;;;;;;5017477;28;20206;-90
2022/04/28 09:55:56;;;;;;;3.20;2.40;;;6.10;99.90;;;;;;5018431;28;20651;-88
2022/04/28 09:58:29;;;;;;;2.60;2.40;;;6.20;99.90;;;;;;5016658;28;20251;-89
2022/04/28 10:01:03;;;;;;;2.57;1.97;;;6.30;99.90;;;;;;5017337;28;20206;-89
2022/04/28 10:03:40;;;;;;;4.00;2.30;;;6.40;99.90;;;;;;5017739;28;20279;-89
2022/04/28 10:06:11;;;;;;;5.80;2.63;;;6.40;99.90;;;;;;5021026;28;20231;-89
2022/04/28 10:08:44;;;;;;;2.33;2.13;;;6.50;99.90;;;;;;5021205;28;20275;-89
2022/04/28 10:11:23;;;;;;;2.80;2.10;;;6.60;99.90;;;;;;5024388;28;20239;-90
2022/04/28 10:13:55;;;;;;;3.73;2.00;;;6.60;99.90;;;;;;5033136;28;20709;-88
2022/04/28 10:16:27;;;;;;;2.33;1.90;;;6.60;99.90;;;;;;5034092;28;20244;-88
2022/04/28 10:19:07;;;;;;;1.70;1.60;;;6.70;99.90;;;;;;5032153;28;20210;-87
2022/04/28 10:21:45;;;;;;;2.40;1.93;;;6.70;99.90;;;;;;5022388;28;20216;-88
2022/04/28 10:33:12;;;;;;;2.97;1.70;;;6.90;99.90;;;;;;5021526;28;20299;-89
2022/04/28 10:35:46;;;;;;;3.50;1.90;;;6.80;99.90;;;;;;5021908;28;20233;-89
2022/04/28 10:38:23;;;;;;;1.80;1.70;;;6.80;99.90;;;;;;5021500;28;20546;-89
2022/04/28 10:40:59;;;;;;;3.03;1.63;;;6.90;99.90;;;;;;5025203;28;20261;-88
2022/04/28 10:43:39;;;;;;;1.70;1.60;;;6.90;99.90;;;;;;5038860;28;20193;-88
2022/04/28 10:46:33;;;;;;;4.03;1.70;;;6.90;99.90;;;;;;5039407;28;20205;-89
2022/04/28 10:49:07;;;;;;;1.37;1.27;;;7.00;99.90;;;;;;5031558;28;20530;-89
2022/04/28 10:51:38;;;;;;;1.50;1.30;;;7.00;99.90;;;;;;5023538;28;20271;-89
2022/04/28 10:54:14;;;;;;;2.83;1.63;;;7.00;99.90;;;;;;5027683;28;20634;-89
2022/04/28 10:56:56;;;;;;;1.40;1.30;;;7.00;99.90;;;;;;5020956;28;20240;-89
2022/04/28 10:59:37;;;;;;;1.77;1.67;;;6.90;99.90;;;;;;5019982;28;20601;-89
2022/04/28 11:02:50;;;;;;;1.93;1.50;;;7.00;99.90;;;;;;5020102;28;20664;-89
2022/04/28 11:05:42;;;;;;;1.90;1.57;;;7.00;99.90;;;;;;5020832;28;20206;-89
2022/04/28 11:08:36;;;;;;;2.30;1.33;;;7.00;99.90;;;;;;5024270;28;20224;-88
2022/04/28 11:11:14;;;;;;;1.70;1.17;;;7.00;99.90;;;;;;5038882;28;20189;-89
2022/04/28 11:13:49;;;;;;;1.47;1.37;;;6.90;99.90;;;;;;5038163;28;20189;-90
2022/04/28 11:16:22;;;;;;;2.13;1.50;;;7.00;99.90;;;;;;5025046;28;20293;-89
2022/04/28 11:18:54;;;;;;;3.00;1.27;;;7.00;99.90;;;;;;5024431;28;20197;-89
2022/04/28 11:21:27;;;;;;;2.10;1.60;;;7.00;99.90;;;;;;5020753;28;20265;-89
2022/04/28 11:23:59;;;;;;;1.13;1.10;;;7.00;99.90;;;;;;5021270;28;20217;-89
2022/04/28 11:26:30;;;;;;;2.27;1.50;;;7.00;99.90;;;;;;5019993;28;20237;-89
2022/04/28 11:29:08;;;;;;;1.40;1.30;;;7.10;99.90;;;;;;5001705;28;20210;-89
2022/04/28 11:31:53;;;;;;;1.87;1.57;;;7.10;99.90;;;;;;5000492;28;20321;-89
2022/04/28 11:34:25;;;;;;;1.47;1.37;;;7.10;99.90;;;;;;5017737;28;20223;-89
2022/04/28 11:36:56;;;;;;;1.60;1.50;;;7.10;99.90;;;;;;5023094;28;20271;-89
2022/04/28 11:39:35;;;;;;;1.43;1.30;;;7.10;99.90;;;;;;5019454;28;20244;-89
2022/04/28 11:42:12;;;;;;;2.23;1.90;;;7.20;99.90;;;;;;5023970;28;20279;-89
2022/04/28 11:44:54;;;;;;;2.00;1.60;;;7.20;99.90;;;;;;5020460;28;20221;-89
2022/04/28 11:47:30;;;;;;;1.50;1.40;;;7.20;99.90;;;;;;5019022;28;20562;-90
2022/04/28 11:50:03;;;;;;;3.87;1.87;;;7.20;99.90;;;;;;5020049;28;20197;-90
2022/04/28 11:52:36;;;;;;;2.47;1.50;;;7.20;99.90;;;;;;5018193;28;20308;-89
2022/04/28 11:55:09;;;;;;;1.50;1.37;;;7.20;99.90;;;;;;5020004;28;20557;-90
2022/04/28 11:57:41;;;;;;;2.03;1.67;;;7.20;99.90;;;;;;5018822;28;20295;-89
2022/04/28 12:00:14;;;;;;;2.30;2.10;;;7.10;99.90;;;;;;5019892;28;20206;-90
2022/04/28 12:02:48;;;;;;;2.50;1.77;;;7.20;99.90;;;;;;5021232;28;20656;-89
2022/04/28 12:05:22;;;;;;;1.50;1.37;;;7.20;99.90;;;;;;5021559;28;20205;-90
2022/04/28 12:07:55;;;;;;;1.87;1.43;;;7.20;99.90;;;;;;5021083;28;20202;-89
2022/04/28 12:16:07;;;;;;;1.60;1.50;;;7.20;99.90;;;;;;5019542;28;20209;-90
2022/04/28 12:21:34;;;;;;;2.13;1.60;;;7.30;99.90;;;;;;5019137;28;20222;-89
2022/04/28 12:24:13;;;;;;;4.77;1.70;;;7.20;99.90;;;;;;5023256;28;20225;-88
2022/04/28 12:26:46;;;;;;;2.27;1.60;;;7.20;99.90;;;;;;5018802;28;20612;-89
2022/04/28 12:29:19;;;;;;;4.03;1.90;;;7.10;99.90;;;;;;5018291;28;20236;-89
2022/04/28 12:31:57;;;;;;;2.07;1.70;;;7.10;99.90;;;;;;5016375;28;20197;-89
2022/04/28 12:35:01;;;;;;;2.73;1.70;;;7.10;99.90;;;;;;5004718;28;20298;-90
2022/04/28 12:37:32;;;;;;;2.93;1.83;;;7.10;99.90;;;;;;4998029;28;20210;-89
2022/04/28 12:40:05;;;;;;;1.70;1.60;;;7.10;99.90;;;;;;4998642;28;20215;-89
2022/04/28 12:42:48;;;;;;;2.17;1.97;;;7.10;99.90;;;;;;4997411;28;20206;-89
2022/04/28 12:45:45;;;;;;;1.90;1.70;;;7.10;99.90;;;;;;4998483;28;20248;-90
2022/04/28 12:48:30;;;;;;;1.87;1.77;;;7.10;99.90;;;;;;4997414;28;20221;-89
2022/04/28 12:51:26;;;;;;;2.30;1.90;;;7.10;99.90;;;;;;4998498;28;20233;-89
2022/04/28 12:54:09;;;;;;;2.60;1.77;;;7.10;99.90;;;;;;4998548;28;20247;-89
2022/04/28 12:56:42;;;;;;;4.53;1.87;;;7.00;99.90;;;;;;4997634;28;20206;-89
2022/04/28 12:59:15;;;;;;;3.43;1.70;;;7.00;99.90;;;;;;4998774;28;20555;-89
2022/04/28 13:01:48;;;;;;;2.07;1.60;;;7.00;99.90;;;;;;4998087;28;20586;-89
2022/04/28 13:04:21;;;;;;;1.90;1.80;;;7.00;99.90;;;;;;4998956;28;20268;-90
2022/04/28 13:06:56;;;;;;;1.60;1.50;;;7.00;99.90;;;;;;4998016;28;20226;-89
2022/04/28 13:09:32;;;;;;;1.77;1.67;;;7.00;99.90;;;;;;5002582;28;20209;-90
2022/04/28 13:12:05;;;;;;;1.80;1.70;;;7.00;99.90;;;;;;4997953;28;20230;-89
2022/04/28 13:14:36;;;;;;;3.17;1.70;;;7.10;99.90;;;;;;4998257;28;20230;-89
2022/04/28 13:17:07;;;;;;;1.57;1.40;;;7.00;99.90;;;;;;5000640;28;20687;-90
2022/04/28 13:19:40;;;;;;;2.10;1.43;;;7.00;99.90;;;;;;5017937;28;20237;-89
2022/04/28 13:22:13;;;;;;;2.23;1.70;;;7.00;99.90;;;;;;5026751;28;20243;-90
2022/04/28 13:24:44;;;;;;;1.90;1.53;;;7.10;99.90;;;;;;5033525;28;20202;-90
2022/04/28 13:27:16;;;;;;;2.10;1.57;;;7.10;99.90;;;;;;5020415;28;20205;-95
2022/04/28 13:29:47;;;;;;;2.47;1.50;;;7.20;99.90;;;;;;5020056;28;20214;-89
2022/04/28 13:32:19;;;;;;;2.73;1.90;;;7.20;99.90;;;;;;5019105;28;20210;-89
2022/04/28 13:34:51;;;;;;;1.77;1.60;;;7.30;99.90;;;;;;4998523;28;20261;-88
2022/04/28 13:37:24;;;;;;;2.40;1.70;;;7.30;99.90;;;;;;4998054;28;20278;-88
2022/04/28 13:39:55;;;;;;;2.37;1.70;;;7.30;99.90;;;;;;4999282;28;20210;-89
2022/04/28 13:42:26;;;;;;;1.87;1.77;;;7.40;99.90;;;;;;5014869;28;20206;-89
2022/04/28 13:44:58;;;;;;;2.60;1.67;;;7.40;99.90;;;;;;5018676;28;20300;-89
2022/04/28 13:47:29;;;;;;;2.07;1.87;;;7.40;99.90;;;;;;5022212;28;20216;-89
2022/04/28 13:50:00;;;;;;;2.13;1.93;;;7.40;99.90;;;;;;5034345;28;20215;-89
2022/04/28 13:52:33;;;;;;;1.73;1.63;;;7.40;99.90;;;;;;5035612;28;20265;-89
2022/04/28 13:55:04;;;;;;;2.27;2.07;;;7.50;99.90;;;;;;5034910;28;20229;-89
2022/04/28 13:57:36;;;;;;;2.00;1.80;;;7.50;99.90;;;;;;5034180;28;20213;-89
2022/04/28 14:00:09;;;;;;;2.40;2.00;;;7.60;99.90;;;;;;5021394;28;20297;-90
2022/04/28 14:02:40;;;;;;;3.27;2.00;;;7.60;99.90;;;;;;5017094;28;20312;-89
2022/04/28 14:05:13;;;;;;;3.30;2.33;;;7.60;99.90;;;;;;5017015;28;20232;-89
2022/04/28 14:07:46;;;;;;;3.47;2.53;;;7.60;99.90;;;;;;5016228;28;20245;-89
2022/04/28 14:10:18;;;;;;;4.03;2.47;;;7.60;99.90;;;;;;5017876;28;20247;-89
2022/04/28 14:12:50;;;;;;;4.00;3.10;;;7.60;99.90;;;;;;5017502;28;20283;-90
2022/04/28 14:15:21;;;;;;;2.93;2.60;;;7.60;99.90;;;;;;5000925;28;20240;-89
2022/04/28 14:17:52;;;;;;;2.90;2.60;;;7.60;99.90;;;;;;5018354;28;20206;-89
2022/04/28 14:20:24;;;;;;;3.10;2.80;;;7.60;99.90;;;;;;5017855;28;20205;-89
2022/04/28 14:22:57;;;;;;;4.73;2.43;;;7.50;99.90;;;;;;5017442;28;20240;-89
2022/04/28 14:25:29;;;;;;;3.00;2.70;;;7.50;99.90;;;;;;5016687;28;20226;-89
2022/04/28 14:28:00;;;;;;;3.27;2.70;;;7.50;99.90;;;;;;5016976;28;20243;-89